createdAt,value
2022-10-05T00:00:51.050Z,5.20
2022-10-05T00:03:17.706Z,4.72
2022-10-05T00:08:21.592Z,5.05
2022-10-05T00:10:48.808Z,5.28
2022-10-05T00:13:22.141Z,6.22
2022-10-05T00:15:49.697Z,5.53
2022-10-05T00:18:21.553Z,5.72
2022-10-05T00:20:49.029Z,5.40
2022-10-05T00:23:21.828Z,6.53
2022-10-05T00:25:48.413Z,4.65
2022-10-05T00:28:27.029Z,5.10
2022-10-05T00:31:00.389Z,4.43
2022-10-05T00:33:28.003Z,4.80
2022-10-05T00:35:55.605Z,4.63
2022-10-05T00:38:22.678Z,4.57
2022-10-05T00:40:55.681Z,4.40
2022-10-05T00:43:48.441Z,4.88
2022-10-05T00:46:15.079Z,5.47
2022-10-05T00:51:36.001Z,5.13
2022-10-05T00:54:20.792Z,4.72
2022-10-05T00:57:23.122Z,6.22
2022-10-05T01:00:13.843Z,4.75
2022-10-05T01:02:44.834Z,5.07
2022-10-05T01:05:32.916Z,5.07
2022-10-05T01:07:59.557Z,5.32
2022-10-05T01:13:06.922Z,5.72
2022-10-05T01:15:43.457Z,6.30
2022-10-05T01:18:31.661Z,5.95
2022-10-05T01:21:23.018Z,5.85
2022-10-05T01:24:17.806Z,6.28
2022-10-05T01:26:46.618Z,6.30
2022-10-05T01:29:38.394Z,6.25
2022-10-05T01:32:39.427Z,6.28
2022-10-05T01:35:34.509Z,7.35
2022-10-05T01:38:09.177Z,6.00
2022-10-05T01:41:13.297Z,6.40
2022-10-05T01:43:46.049Z,5.75
2022-10-05T01:48:52.739Z,5.78
2022-10-05T01:51:45.412Z,6.05
2022-10-05T01:54:36.965Z,5.88
2022-10-05T01:57:48.596Z,6.18
2022-10-05T02:00:18.708Z,5.53
2022-10-05T02:02:52.692Z,6.13
2022-10-05T02:06:06.390Z,5.38
2022-10-05T02:08:44.009Z,6.10
2022-10-05T02:11:17.235Z,5.60
2022-10-05T02:13:58.202Z,5.55
2022-10-05T02:16:33.989Z,5.88
2022-10-05T02:19:14.681Z,5.72
2022-10-05T02:21:47.393Z,6.35
2022-10-05T02:24:22.201Z,6.25
2022-10-05T02:26:52.290Z,7.22
2022-10-05T02:29:23.931Z,7.72
2022-10-05T02:32:00.577Z,7.28
2022-10-05T02:34:37.543Z,8.32
2022-10-05T02:37:26.641Z,8.10
2022-10-05T02:39:54.117Z,7.53
2022-10-05T02:42:45.544Z,7.55
2022-10-05T02:45:36.800Z,7.22
2022-10-05T02:48:26.949Z,6.57
2022-10-05T02:51:09.226Z,6.57
2022-10-05T02:54:06.710Z,6.18
2022-10-05T02:56:54.776Z,6.43
2022-10-05T02:59:34.086Z,6.15
2022-10-05T03:02:17.912Z,6.00
2022-10-05T03:04:56.716Z,6.65
2022-10-05T03:07:32.025Z,6.15
2022-10-05T03:10:09.587Z,6.53
2022-10-05T03:12:44.811Z,5.70
2022-10-05T03:15:20.256Z,5.50
2022-10-05T03:18:17.336Z,4.90
2022-10-05T03:20:54.265Z,6.13
2022-10-05T03:23:44.783Z,5.38
2022-10-05T03:26:54.631Z,4.82
2022-10-05T03:29:44.015Z,5.38
2022-10-05T03:32:33.414Z,5.63
2022-10-05T03:35:18.385Z,5.00
2022-10-05T03:38:03.078Z,3.78
2022-10-05T03:40:36.659Z,5.43
2022-10-05T03:43:42.960Z,5.25
2022-10-05T03:46:51.691Z,4.25
2022-10-05T03:49:31.458Z,5.25
2022-10-05T03:52:09.997Z,4.18
2022-10-05T03:54:42.257Z,4.80
2022-10-05T03:57:18.299Z,5.32
2022-10-05T04:00:18.003Z,4.90
2022-10-05T04:02:54.840Z,5.30
2022-10-05T04:05:27.258Z,5.07
2022-10-05T04:08:18.551Z,5.45
2022-10-05T04:10:45.257Z,5.32
2022-10-05T04:13:32.038Z,5.75
2022-10-05T04:16:06.323Z,6.13
2022-10-05T04:18:39.125Z,5.28
2022-10-05T04:21:53.435Z,5.88
2022-10-05T04:24:49.237Z,5.43
2022-10-05T04:27:28.479Z,5.55
2022-10-05T04:30:08.497Z,4.90
2022-10-05T04:32:49.022Z,5.00
2022-10-05T04:36:02.696Z,4.97
2022-10-05T04:38:48.038Z,5.45
2022-10-05T04:41:37.332Z,4.72
2022-10-05T04:44:04.754Z,6.32
2022-10-05T04:46:58.720Z,4.97
2022-10-05T04:49:32.038Z,5.25
2022-10-05T04:52:17.786Z,5.80
2022-10-05T04:54:50.111Z,5.47
2022-10-05T04:57:35.510Z,5.50
2022-10-05T05:00:06.260Z,5.75
2022-10-05T05:03:06.035Z,5.88
2022-10-05T05:06:16.940Z,4.53
2022-10-05T05:09:10.277Z,4.82
2022-10-05T05:12:08.446Z,4.47
2022-10-05T05:14:49.236Z,4.47
2022-10-05T05:20:16.277Z,4.32
2022-10-05T05:22:53.697Z,3.88
2022-10-05T05:25:32.183Z,4.93
2022-10-05T05:28:11.837Z,4.65
2022-10-05T05:31:12.323Z,3.70
2022-10-05T05:33:59.062Z,4.60
2022-10-05T05:36:50.612Z,4.28
2022-10-05T05:39:29.446Z,5.18
2022-10-05T05:42:25.750Z,4.45
2022-10-05T05:44:56.466Z,4.75
2022-10-05T05:47:37.977Z,5.25
2022-10-05T05:50:33.598Z,4.82
2022-10-05T05:53:32.967Z,6.25
2022-10-05T05:56:09.922Z,5.30
2022-10-05T05:58:55.869Z,5.78
2022-10-05T06:01:32.924Z,5.03
2022-10-05T06:04:12.746Z,6.18
2022-10-05T06:06:46.170Z,5.78
2022-10-05T06:09:46.089Z,5.25
2022-10-05T06:12:34.660Z,5.50
2022-10-05T06:15:35.056Z,5.05
2022-10-05T06:18:08.803Z,4.75
2022-10-05T06:20:41.229Z,5.20
2022-10-05T06:23:28.120Z,4.80
2022-10-05T06:26:01.879Z,5.30
2022-10-05T06:28:31.066Z,4.95
2022-10-05T06:31:07.236Z,4.72
2022-10-05T06:33:50.528Z,6.75
2022-10-05T06:36:34.803Z,5.28
2022-10-05T06:39:39.342Z,5.68
2022-10-05T06:42:19.869Z,5.00
2022-10-05T06:45:19.988Z,4.15
2022-10-05T06:48:44.800Z,4.97
2022-10-05T06:51:26.152Z,3.92
2022-10-05T06:54:07.679Z,4.82
2022-10-05T06:56:47.764Z,4.75
2022-10-05T06:59:18.177Z,5.68
2022-10-05T07:01:52.172Z,3.92
2022-10-05T07:05:05.126Z,4.70
2022-10-05T07:07:38.677Z,5.72
2022-10-05T07:10:13.009Z,4.72
2022-10-05T07:13:18.741Z,4.95
2022-10-05T07:15:52.810Z,5.18
2022-10-05T07:18:26.853Z,5.93
2022-10-05T07:21:05.419Z,5.55
2022-10-05T07:23:42.819Z,5.30
2022-10-05T07:26:18.899Z,5.10
2022-10-05T07:28:50.960Z,5.13
2022-10-05T07:31:53.390Z,4.85
2022-10-05T07:34:46.475Z,5.10
2022-10-05T07:37:38.810Z,4.22
2022-10-05T07:40:13.685Z,4.25
2022-10-05T07:43:03.910Z,4.30
2022-10-05T07:45:44.201Z,4.78
2022-10-05T07:48:17.542Z,5.10
2022-10-05T07:51:02.937Z,3.83
2022-10-05T07:53:37.123Z,4.43
2022-10-05T07:56:21.062Z,5.80
2022-10-05T07:58:57.876Z,4.65
2022-10-05T08:01:34.096Z,4.32
2022-10-05T08:04:14.526Z,4.03
2022-10-05T08:06:51.300Z,3.92
2022-10-05T08:09:58.495Z,4.47
2022-10-05T08:12:47.245Z,3.65
2022-10-05T08:15:24.129Z,4.43
2022-10-05T08:17:55.853Z,3.63
2022-10-05T08:20:28.457Z,4.30
2022-10-05T08:25:37.866Z,4.00
2022-10-05T08:28:13.247Z,4.43
2022-10-05T08:30:54.461Z,4.10
2022-10-05T08:33:22.821Z,4.38
2022-10-05T08:36:04.626Z,4.10
2022-10-05T08:38:35.089Z,4.20
2022-10-05T08:41:35.000Z,4.25
2022-10-05T08:44:38.609Z,4.07
2022-10-05T08:47:28.064Z,3.92
2022-10-05T08:50:10.151Z,3.75
2022-10-05T08:52:56.137Z,3.95
2022-10-05T08:55:42.199Z,3.78
2022-10-05T08:58:39.952Z,3.80
2022-10-05T09:01:20.844Z,3.30
2022-10-05T09:03:55.525Z,3.20
2022-10-05T09:06:52.121Z,3.03
2022-10-05T09:12:04.327Z,3.08
2022-10-05T09:15:20.826Z,3.00
2022-10-05T09:18:03.946Z,2.72
2022-10-05T09:21:17.213Z,3.55
2022-10-05T09:23:49.140Z,3.53
2022-10-05T09:26:44.653Z,3.28
2022-10-05T09:29:30.203Z,3.22
2022-10-05T09:32:16.564Z,3.13
2022-10-05T09:34:58.545Z,2.97
2022-10-05T09:37:28.218Z,3.15
2022-10-05T09:40:20.718Z,2.55
2022-10-05T09:43:14.647Z,2.90
2022-10-05T09:45:50.080Z,3.10
2022-10-05T09:48:26.031Z,3.08
2022-10-05T09:51:26.990Z,2.97
2022-10-05T09:54:18.311Z,3.03
2022-10-05T09:57:12.795Z,2.53
2022-10-05T09:59:46.150Z,2.67
2022-10-05T10:02:42.432Z,3.30
2022-10-05T10:05:19.001Z,3.35
2022-10-05T10:08:17.128Z,3.38
2022-10-05T10:11:25.160Z,2.75
2022-10-05T10:14:04.111Z,3.08
2022-10-05T10:16:42.680Z,3.05
2022-10-05T10:22:07.844Z,3.25
2022-10-05T10:25:05.304Z,3.63
2022-10-05T10:27:52.480Z,2.88
2022-10-05T10:30:27.426Z,2.83
2022-10-05T10:33:19.757Z,3.17
2022-10-05T10:36:00.515Z,2.42
2022-10-05T10:38:35.868Z,2.83
2022-10-05T10:41:11.899Z,2.78
2022-10-05T10:44:16.084Z,2.63
2022-10-05T10:47:04.436Z,2.55
2022-10-05T10:49:38.421Z,2.40
2022-10-05T10:52:05.056Z,2.30
2022-10-05T10:54:53.334Z,2.30
2022-10-05T10:57:52.499Z,2.63
2022-10-05T11:00:46.566Z,2.70
2022-10-05T11:03:38.294Z,2.40
2022-10-05T11:06:39.239Z,2.30
2022-10-05T11:09:18.308Z,2.83
2022-10-05T11:11:58.572Z,2.70
2022-10-05T11:14:52.403Z,1.60
2022-10-05T11:17:33.459Z,2.08
2022-10-05T11:20:40.061Z,2.20
2022-10-05T11:23:26.880Z,2.35
2022-10-05T11:25:56.585Z,2.13
2022-10-05T11:28:51.046Z,2.42
2022-10-05T11:31:40.435Z,2.20
2022-10-05T11:34:38.516Z,2.20
2022-10-05T11:37:32.169Z,2.58
2022-10-05T11:40:10.694Z,3.35
2022-10-05T11:43:02.112Z,3.17
2022-10-05T11:45:47.653Z,2.80
2022-10-05T11:48:26.469Z,3.08
2022-10-05T11:51:18.422Z,3.35
2022-10-05T11:53:54.071Z,2.35
2022-10-05T11:59:04.239Z,2.75
2022-10-05T12:01:56.031Z,2.72
2022-10-05T12:04:49.594Z,2.83
2022-10-05T12:07:51.584Z,2.78
2022-10-05T12:10:28.986Z,3.10
2022-10-05T12:13:13.221Z,3.17
2022-10-05T12:15:55.666Z,3.30
2022-10-05T12:18:31.758Z,2.60
2022-10-05T12:21:28.411Z,2.63
2022-10-05T12:23:55.013Z,2.70
2022-10-05T12:26:29.753Z,2.55
2022-10-05T12:29:08.301Z,2.22
2022-10-05T12:31:50.450Z,2.72
2022-10-05T12:34:41.913Z,2.50
2022-10-05T12:37:42.020Z,2.47
2022-10-05T12:40:17.574Z,2.78
2022-10-05T12:42:54.664Z,2.60
2022-10-05T12:45:28.792Z,2.65
2022-10-05T12:48:19.861Z,2.50
2022-10-05T12:51:01.678Z,2.58
2022-10-05T12:53:53.444Z,2.55
2022-10-05T12:56:40.309Z,2.42
2022-10-05T12:59:31.861Z,2.08
2022-10-05T13:02:19.805Z,2.22
2022-10-05T13:04:58.790Z,1.95
2022-10-05T13:07:40.556Z,2.20
2022-10-05T13:10:22.667Z,2.45
2022-10-05T13:13:20.821Z,2.40
2022-10-05T13:16:08.621Z,3.15
2022-10-05T13:18:35.275Z,2.25
2022-10-05T13:21:15.064Z,2.30
2022-10-05T13:24:08.579Z,2.00
2022-10-05T13:26:40.032Z,2.20
2022-10-05T13:29:31.054Z,2.10
2022-10-05T13:32:03.776Z,1.88
2022-10-05T13:34:49.215Z,1.80
2022-10-05T13:38:11.307Z,1.50
2022-10-05T13:40:57.837Z,1.83
2022-10-05T13:43:44.052Z,1.83
2022-10-05T13:46:13.862Z,1.67
2022-10-05T13:48:59.342Z,1.70
2022-10-05T13:51:50.774Z,1.90
2022-10-05T13:54:21.816Z,1.70
2022-10-05T13:57:31.588Z,1.88
2022-10-05T14:00:05.033Z,1.90
2022-10-05T14:02:41.814Z,1.80
2022-10-05T14:05:25.395Z,1.90
2022-10-05T14:07:56.139Z,2.03
2022-10-05T14:10:49.391Z,1.98
2022-10-05T14:13:46.690Z,2.17
2022-10-05T14:16:13.720Z,2.20
2022-10-05T14:19:18.703Z,1.98
2022-10-05T14:21:54.737Z,2.10
2022-10-05T14:24:45.586Z,2.35
2022-10-05T14:27:26.905Z,2.45
2022-10-05T14:30:19.097Z,2.13
2022-10-05T14:33:08.636Z,2.42
2022-10-05T14:35:51.365Z,2.45
2022-10-05T14:38:30.576Z,2.30
2022-10-05T14:41:19.151Z,2.70
2022-10-05T14:43:51.418Z,2.30
2022-10-05T14:46:23.109Z,2.35
2022-10-05T14:49:27.293Z,2.35
2022-10-05T14:51:55.785Z,2.10
2022-10-05T14:54:57.592Z,2.85
2022-10-05T14:57:37.591Z,2.22
2022-10-05T15:00:12.573Z,1.90
2022-10-05T15:02:54.471Z,2.03
2022-10-05T15:05:34.090Z,2.00
2022-10-05T15:08:08.837Z,2.15
2022-10-05T15:11:03.120Z,2.05
2022-10-05T15:13:34.178Z,3.10
2022-10-05T15:16:12.732Z,2.50
2022-10-05T15:19:24.478Z,2.33
2022-10-05T15:22:04.614Z,2.60
2022-10-05T15:24:46.480Z,2.60
2022-10-05T15:27:28.982Z,2.92
2022-10-05T15:30:18.234Z,2.80
2022-10-05T15:33:14.474Z,2.90
2022-10-05T15:36:19.830Z,2.90
2022-10-05T15:38:50.130Z,2.38
2022-10-05T15:41:30.237Z,2.38
2022-10-05T15:44:24.261Z,2.47
2022-10-05T15:46:59.039Z,2.35
2022-10-05T15:50:26.443Z,2.25
2022-10-05T15:52:57.955Z,2.70
2022-10-05T15:55:46.963Z,2.80
2022-10-05T15:58:43.468Z,2.67
2022-10-05T16:01:13.353Z,3.03
2022-10-05T16:04:01.849Z,3.17
2022-10-05T16:07:05.031Z,3.55
2022-10-05T16:09:50.582Z,2.90
2022-10-05T16:12:32.413Z,3.25
2022-10-05T16:15:33.975Z,3.33
2022-10-05T16:18:14.040Z,3.75
2022-10-05T16:20:44.256Z,3.45
2022-10-05T16:23:25.875Z,3.50
2022-10-05T16:26:04.974Z,3.10
2022-10-05T16:29:01.483Z,3.05
2022-10-05T16:34:17.356Z,3.58
2022-10-05T16:37:03.282Z,4.20
2022-10-05T16:39:54.900Z,4.80
2022-10-05T16:42:50.966Z,3.97
2022-10-05T16:45:52.027Z,4.28
2022-10-05T16:48:53.443Z,3.78
2022-10-05T16:51:50.962Z,3.97
2022-10-05T16:54:26.835Z,4.53
2022-10-05T16:57:12.246Z,4.03
2022-10-05T17:00:25.123Z,3.60
2022-10-05T17:03:13.371Z,3.15
2022-10-05T17:06:35.423Z,3.40
2022-10-05T17:09:38.486Z,3.97
2022-10-05T17:12:17.309Z,5.55
2022-10-05T17:15:03.954Z,6.32
2022-10-05T19:20:24.026Z,4.50
2022-10-05T19:23:20.266Z,4.43
2022-10-05T19:25:55.114Z,3.72
2022-10-05T19:28:41.259Z,4.35
2022-10-05T19:31:14.486Z,4.18
2022-10-05T19:34:16.366Z,3.50
2022-10-05T19:37:15.118Z,4.47
2022-10-05T19:39:58.142Z,3.95
2022-10-05T19:42:49.664Z,4.43
2022-10-05T19:45:24.119Z,3.67
2022-10-05T19:47:56.793Z,4.50
2022-10-05T19:50:23.500Z,3.80
2022-10-05T19:52:57.799Z,3.92
2022-10-05T19:55:34.648Z,4.22
2022-10-05T19:58:01.763Z,4.03
2022-10-05T20:00:34.571Z,4.57
2022-10-05T20:03:16.553Z,3.63
2022-10-05T20:05:45.266Z,4.10
2022-10-05T20:08:18.169Z,4.15
2022-10-05T20:11:03.089Z,3.90
2022-10-05T20:13:33.447Z,4.32
2022-10-05T20:16:26.450Z,3.60
2022-10-05T20:19:12.098Z,4.40
2022-10-05T20:21:51.400Z,4.22
2022-10-05T20:24:23.502Z,3.88
2022-10-05T20:27:16.200Z,4.10
2022-10-05T20:29:44.958Z,4.30
2022-10-05T20:32:15.208Z,5.45
2022-10-05T20:34:47.175Z,3.90
2022-10-05T20:37:16.391Z,5.05
2022-10-05T20:39:43.440Z,4.22
2022-10-05T20:42:11.515Z,4.55
2022-10-05T20:44:38.764Z,4.43
2022-10-05T20:47:09.472Z,4.63
2022-10-05T20:49:38.546Z,4.28
2022-10-05T20:52:06.688Z,4.65
2022-10-05T20:54:33.379Z,4.28
2022-10-05T20:57:00.745Z,4.15
2022-10-05T20:59:27.377Z,4.43
2022-10-05T21:01:54.263Z,4.45
2022-10-05T21:04:23.299Z,4.32
2022-10-05T21:06:50.090Z,4.32
2022-10-05T21:09:21.293Z,4.68
2022-10-05T21:11:50.220Z,4.80
2022-10-05T21:14:17.264Z,4.03
2022-10-05T21:16:45.787Z,4.30
2022-10-05T21:19:16.659Z,5.22
2022-10-05T21:21:45.784Z,4.45
2022-10-05T21:24:14.426Z,4.68
2022-10-05T21:26:42.217Z,3.85
2022-10-05T21:29:12.457Z,5.38
2022-10-05T21:31:43.200Z,4.55
2022-10-05T21:34:09.990Z,5.22
2022-10-05T21:36:37.060Z,4.45
2022-10-05T21:39:03.848Z,4.45
2022-10-05T21:41:30.532Z,4.85
2022-10-05T21:43:58.771Z,4.88
2022-10-05T21:46:26.755Z,5.38
2022-10-05T21:48:55.199Z,5.25
2022-10-05T21:51:25.119Z,4.03
2022-10-05T21:54:02.777Z,4.43
2022-10-05T21:56:34.880Z,5.15
2022-10-05T21:59:04.538Z,4.72
2022-10-05T22:01:31.419Z,3.72
2022-10-05T22:03:58.034Z,4.22
2022-10-05T22:08:51.290Z,4.60
2022-10-05T22:13:50.652Z,4.60
2022-10-05T22:18:45.828Z,3.90
2022-10-05T22:21:13.949Z,3.97
2022-10-05T22:23:42.261Z,5.18
2022-10-05T22:26:12.532Z,4.72
2022-10-05T22:28:39.978Z,4.70
2022-10-05T22:31:08.158Z,3.88
2022-10-05T22:33:34.967Z,3.40
2022-10-05T22:36:01.640Z,4.28
2022-10-05T22:38:30.375Z,4.00
2022-10-05T22:40:57.644Z,4.38
2022-10-05T22:43:27.070Z,3.67
2022-10-05T22:45:54.471Z,3.83
2022-10-05T22:48:21.200Z,4.43
2022-10-05T22:50:48.903Z,4.15
2022-10-05T22:53:15.656Z,4.47
2022-10-05T22:55:42.253Z,4.07
2022-10-05T22:58:08.894Z,5.05
2022-10-05T23:00:56.877Z,4.60
2022-10-05T23:03:22.084Z,4.43
2022-10-05T23:08:22.121Z,4.20
2022-10-05T23:10:48.795Z,4.03
2022-10-05T23:13:15.369Z,4.55
2022-10-05T23:15:42.486Z,3.67
2022-10-05T23:18:09.049Z,3.67
2022-10-05T23:20:35.673Z,4.00
2022-10-05T23:23:02.316Z,3.50
2022-10-05T23:25:28.921Z,3.13
2022-10-05T23:27:55.516Z,3.22
2022-10-05T23:30:22.170Z,3.42
2022-10-05T23:32:48.761Z,3.72
2022-10-05T23:37:44.217Z,3.28
2022-10-05T23:40:13.596Z,3.40
2022-10-05T23:42:41.450Z,2.83
2022-10-05T23:45:09.988Z,3.30
2022-10-05T23:47:36.856Z,3.03
2022-10-05T23:50:05.300Z,2.78
2022-10-05T23:52:31.961Z,2.75
2022-10-05T23:54:58.605Z,3.05
2022-10-05T23:57:25.236Z,3.08
2022-10-05T23:59:51.992Z,3.25
